地図

経路データ

SID SEASON NUMBER BASIN SUBBASIN NAME ISO_TIME NATURE LAT LON WMO_WIND WMO_PRES WMO_AGENCY TRACK_TYPE DIST2LAND LANDFALL IFLAG USA_AGENCY USA_ATCF_ID USA_LAT USA_LON USA_RECORD USA_STATUS USA_WIND USA_PRES USA_SSHS USA_R34_NE USA_R34_SE USA_R34_SW USA_R34_NW USA_R50_NE USA_R50_SE USA_R50_SW USA_R50_NW USA_R64_NE USA_R64_SE USA_R64_SW USA_R64_NW USA_POCI USA_ROCI USA_RMW USA_EYE TOKYO_LAT TOKYO_LON TOKYO_GRADE TOKYO_WIND TOKYO_PRES TOKYO_R50_DIR TOKYO_R50_LONG TOKYO_R50_SHORT TOKYO_R30_DIR TOKYO_R30_LONG TOKYO_R30_SHORT TOKYO_LAND CMA_LAT CMA_LON CMA_CAT CMA_WIND CMA_PRES HKO_LAT HKO_LON HKO_CAT HKO_WIND HKO_PRES NEWDELHI_LAT NEWDELHI_LON NEWDELHI_GRADE NEWDELHI_WIND NEWDELHI_PRES NEWDELHI_CI NEWDELHI_DP NEWDELHI_POCI REUNION_LAT REUNION_LON REUNION_TYPE REUNION_WIND REUNION_PRES REUNION_TNUM REUNION_CI REUNION_RMW REUNION_R34_NE REUNION_R34_SE REUNION_R34_SW REUNION_R34_NW REUNION_R50_NE REUNION_R50_SE REUNION_R50_SW REUNION_R50_NW REUNION_R64_NE REUNION_R64_SE REUNION_R64_SW REUNION_R64_NW BOM_LAT BOM_LON BOM_TYPE BOM_WIND BOM_PRES BOM_TNUM BOM_CI BOM_RMW BOM_R34_NE BOM_R34_SE BOM_R34_SW BOM_R34_NW BOM_R50_NE BOM_R50_SE BOM_R50_SW BOM_R50_NW BOM_R64_NE BOM_R64_SE BOM_R64_SW BOM_R64_NW BOM_ROCI BOM_POCI BOM_EYE BOM_POS_METHOD BOM_PRES_METHOD NADI_LAT NADI_LON NADI_CAT NADI_WIND NADI_PRES WELLINGTON_LAT WELLINGTON_LON WELLINGTON_WIND WELLINGTON_PRES DS824_LAT DS824_LON DS824_STAGE DS824_WIND DS824_PRES TD9636_LAT TD9636_LON TD9636_STAGE TD9636_WIND TD9636_PRES TD9635_LAT TD9635_LON TD9635_WIND TD9635_PRES TD9635_ROCI NEUMANN_LAT NEUMANN_LON NEUMANN_CLASS NEUMANN_WIND NEUMANN_PRES MLC_LAT MLC_LON MLC_CLASS MLC_WIND MLC_PRES USA_GUST BOM_GUST BOM_GUST_PER REUNION_GUST REUNION_GUST_PER USA_SEAHGT USA_SEARAD_NE USA_SEARAD_SE USA_SEARAD_SW USA_SEARAD_NW STORM_SPEED STORM_DIR
1895209N21114 1895 20 WP MM NOT_NAMED 1895-07-28 04:00:00 NR 21.1000 114.000 main 133 106 __________O___ -1 21.1000 114.000 4 9 284
1895209N21114 1895 20 WP MM NOT_NAMED 1895-07-28 06:00:00 NR 21.1773 113.675 main 106 70 __________P___ -1 21.1773 113.675 4 9 284
1895209N21114 1895 20 WP MM NOT_NAMED 1895-07-28 09:00:00 NR 21.2887 113.191 main 70 45 __________P___ -1 21.2887 113.191 4 9 283
1895209N21114 1895 20 WP MM NOT_NAMED 1895-07-28 12:00:00 NR 21.3899 112.714 main 45 22 __________P___ -1 21.3899 112.714 4 9 282
1895209N21114 1895 20 WP MM NOT_NAMED 1895-07-28 15:00:00 NR 21.4757 112.251 main 22 22 __________P___ -1 21.4757 112.251 4 9 281
1895209N21114 1895 20 WP MM NOT_NAMED 1895-07-28 16:00:00 NR 21.5000 112.100 main 24 11 __________O___ -1 21.5000 112.100 4 8 279
1895209N21114 1895 20 WP MM NOT_NAMED 1895-07-28 18:00:00 NR 21.5422 111.805 main 11 0 __________P___ -1 21.5422 111.805 4 8 278
1895209N21114 1895 20 WP MM NOT_NAMED 1895-07-28 21:00:00 NR 21.5992 111.375 main 0 0 __________P___ -1 21.5992 111.375 4 8 279
1895209N21114 1895 20 WP MM NOT_NAMED 1895-07-29 00:00:00 NR 21.6654 110.955 main 0 0 __________P___ -1 21.6654 110.955 4 8 282
1895209N21114 1895 20 WP MM NOT_NAMED 1895-07-29 03:00:00 NR 21.7593 110.539 main 0 0 __________P___ -1 21.7593 110.539 4 8 285
1895209N21114 1895 20 WP MM NOT_NAMED 1895-07-29 04:00:00 NR 21.8000 110.400 main 0 0 __________O___ -1 21.8000 110.400 4 9 290
1895209N21114 1895 20 WP MM NOT_NAMED 1895-07-29 06:00:00 NR 21.9047 110.106 main 0 0 __________P___ -1 21.9047 110.106 4 9 293
1895209N21114 1895 20 WP MM NOT_NAMED 1895-07-29 09:00:00 NR 22.0935 109.666 main 0 0 __________P___ -1 22.0935 109.666 4 9 296
1895209N21114 1895 20 WP MM NOT_NAMED 1895-07-29 12:00:00 NR 22.3062 109.235 main 0 0 __________P___ -1 22.3062 109.235 4 9 299
1895209N21114 1895 20 WP MM NOT_NAMED 1895-07-29 15:00:00 NR 22.5272 108.828 main 0 0 __________P___ -1 22.5272 108.828 4 9 301
1895209N21114 1895 20 WP MM NOT_NAMED 1895-07-29 16:00:00 NR 22.6000 108.700 main 0 0 __________O___ -1 22.6000 108.700 4 8 302
1895209N21114 1895 20 WP MM NOT_NAMED 1895-07-29 18:00:00 NR 22.7418 108.456 main 0 0 __________P___ -1 22.7418 108.456 4 8 303
1895209N21114 1895 20 WP MM NOT_NAMED 1895-07-29 21:00:00 NR 22.9463 108.117 main 0 0 __________P___ -1 22.9463 108.117 4 7 304
1895209N21114 1895 20 WP MM NOT_NAMED 1895-07-30 00:00:00 NR 23.1434 107.802 main 0 0 __________P___ -1 23.1434 107.802 4 7 304
1895209N21114 1895 20 WP MM NOT_NAMED 1895-07-30 03:00:00 NR 23.3362 107.500 main 0 0 __________P___ -1 23.3362 107.500 4 7 305
1895209N21114 1895 20 WP MM NOT_NAMED 1895-07-30 04:00:00 NR 23.4000 107.400 main 0 __________O___ -1 23.4000 107.400 4 7 305

デジタル台風データ・検索

IBTrACS Databaseについて

本データベースは、米国NOAAが公開する1842年以降の世界の熱帯低気圧のベストトラックデータアーカイブInternational Best Track Archive for Climate Stewardship (IBTrACS)を、ウェブで閲覧しやすい形式に変換したものです。

最終更新日:2021-12-03